Terminal Aerodrome Forecast
Issued by NWS Portland, OR

Home | Current Version | Previous Version | Text Only | Print | Product List | Glossary On
Versions: 1 2 3 4 5 6 7 8 9 10 11
000
FTUS46 KPQR 112320
TAFTTD
TAF
KTTD 112320Z 1200/1224 09025G35KT P6SM SCT250
     FM120600 09020G30KT P6SM SCT250
     FM121900 09015G25KT P6SM SCT250=

USA.gov is the U.S. government's official web portal to all federal, state and local government web resources and services.